Time;durP1;ratioP1;P1;durP2;ratioP2;P2;SDS_P1;SDS_P2;PMS_P1;PMS_P2;Temp;Humidity;BMP_temperature;BMP_pressure;BME280_temperature;BME280_humidity;BME280_pressure;Samples;Min_cycle;Max_cycle;Signal;HPM_P1;HPM_P2
2024/01/19 00:00:58;;;;;;;8.82;2.55;;;0.10;99.90;;;;;;7371439;19;20036;-67
2024/01/19 00:03:24;;;;;;;10.23;2.50;;;0.10;99.90;;;;;;7373894;19;20023;-67
2024/01/19 00:05:51;;;;;;;5.07;1.90;;;0.10;99.90;;;;;;7374546;19;20022;-67
2024/01/19 00:08:18;;;;;;;11.55;2.63;;;0.00;99.90;;;;;;7370096;19;20093;-68
2024/01/19 00:10:44;;;;;;;7.03;2.10;;;0.00;99.90;;;;;;7373201;19;20983;-62
2024/01/19 00:13:10;;;;;;;7.13;2.38;;;-0.10;99.90;;;;;;7371443;19;20014;-62
2024/01/19 00:15:36;;;;;;;9.20;2.63;;;-0.10;99.90;;;;;;7374317;19;20044;-68
2024/01/19 00:18:03;;;;;;;10.35;2.85;;;-0.20;99.90;;;;;;7372521;19;20014;-69
2024/01/19 00:20:29;;;;;;;7.18;2.30;;;-0.30;99.90;;;;;;7375819;19;20018;-69
2024/01/19 00:22:55;;;;;;;8.55;2.80;;;-0.30;99.90;;;;;;7374271;19;20038;-70
2024/01/19 00:25:22;;;;;;;8.63;2.97;;;-0.40;99.90;;;;;;7373506;19;20030;-69
2024/01/19 00:27:48;;;;;;;9.93;2.90;;;-0.30;99.90;;;;;;7373465;19;20037;-70
2024/01/19 00:30:14;;;;;;;11.27;2.88;;;-0.40;99.90;;;;;;7367981;19;20786;-69
2024/01/19 00:32:40;;;;;;;9.82;3.00;;;-0.40;99.90;;;;;;7373629;19;20017;-70
2024/01/19 00:35:07;;;;;;;8.10;2.50;;;-0.40;99.90;;;;;;7369561;19;20609;-69
2024/01/19 00:37:33;;;;;;;9.80;2.92;;;-0.40;99.90;;;;;;7371540;19;20018;-70
2024/01/19 00:39:59;;;;;;;6.88;3.25;;;-0.50;99.90;;;;;;7369985;19;20023;-69
2024/01/19 00:42:26;;;;;;;8.15;2.80;;;-0.50;99.90;;;;;;7370884;19;20029;-69
2024/01/19 00:44:53;;;;;;;7.95;3.65;;;-0.50;99.90;;;;;;7371289;19;20086;-70
2024/01/19 00:47:19;;;;;;;7.35;2.70;;;-0.50;99.90;;;;;;7371303;19;20019;-69
2024/01/19 00:49:45;;;;;;;8.02;2.97;;;-0.50;99.90;;;;;;7372058;19;20019;-62
2024/01/19 00:52:12;;;;;;;7.25;2.55;;;-0.50;99.90;;;;;;7368693;19;20023;-63
2024/01/19 00:54:39;;;;;;;8.10;2.65;;;-0.50;99.90;;;;;;7367725;19;20022;-62
2024/01/19 00:57:05;;;;;;;4.60;2.25;;;-0.50;99.90;;;;;;7371819;19;20022;-62
2024/01/19 00:59:31;;;;;;;6.75;2.63;;;-0.40;99.90;;;;;;7369071;19;20015;-69
2024/01/19 01:01:57;;;;;;;6.15;2.72;;;-0.40;99.90;;;;;;7370449;19;20025;-62
2024/01/19 01:04:23;;;;;;;8.23;2.92;;;-0.40;99.90;;;;;;7371881;19;20110;-62
2024/01/19 01:06:49;;;;;;;6.18;2.30;;;-0.40;99.90;;;;;;7372264;19;20062;-62
2024/01/19 01:09:16;;;;;;;9.27;2.60;;;-0.40;99.90;;;;;;7381270;19;20018;-62
2024/01/19 01:11:42;;;;;;;9.25;2.70;;;-0.50;99.90;;;;;;7373813;19;20018;-62
2024/01/19 01:14:09;;;;;;;8.25;3.20;;;-0.50;99.90;;;;;;7378696;19;20040;-62
2024/01/19 01:16:35;;;;;;;9.65;2.97;;;-0.50;99.90;;;;;;7379874;19;20522;-62
2024/01/19 01:19:01;;;;;;;6.22;2.50;;;-0.50;99.90;;;;;;7375083;19;20039;-63
2024/01/19 01:21:27;;;;;;;7.38;2.47;;;-0.40;99.90;;;;;;7376088;19;20019;-62
2024/01/19 01:23:54;;;;;;;8.32;2.78;;;-0.40;99.90;;;;;;7372079;19;20770;-62
2024/01/19 01:26:21;;;;;;;8.82;3.58;;;-0.40;99.90;;;;;;7377958;19;20018;-62
2024/01/19 01:28:50;;;;;;;10.43;2.85;;;-0.30;99.90;;;;;;7377367;19;20018;-62
2024/01/19 01:31:16;;;;;;;9.77;3.13;;;-0.20;99.90;;;;;;7377330;19;20441;-62
2024/01/19 01:33:43;;;;;;;6.97;2.83;;;-0.20;99.90;;;;;;7376310;19;20018;-62
2024/01/19 01:36:10;;;;;;;11.05;2.80;;;-0.10;99.90;;;;;;7377790;19;20022;-62
2024/01/19 01:38:36;;;;;;;6.90;2.60;;;-0.10;99.90;;;;;;7372328;19;20022;-62
2024/01/19 01:41:03;;;;;;;8.32;2.83;;;0.00;99.90;;;;;;7375916;19;20082;-62
2024/01/19 01:43:29;;;;;;;6.95;2.70;;;0.00;99.90;;;;;;7373296;19;20417;-62
2024/01/19 01:45:56;;;;;;;9.75;2.97;;;0.10;99.90;;;;;;7376818;19;20058;-62
2024/01/19 01:48:24;;;;;;;4.80;2.88;;;0.10;99.90;;;;;;7378214;19;20869;-69
2024/01/19 01:50:51;;;;;;;5.97;2.58;;;0.10;99.90;;;;;;7379599;19;20019;-69
2024/01/19 01:53:20;;;;;;;7.78;2.45;;;0.10;99.90;;;;;;7375103;19;21479;-70
2024/01/19 01:56:07;;;;;;;4.82;2.13;;;0.20;99.90;;;;;;7373720;19;20019;-69
2024/01/19 01:58:34;;;;;;;6.25;2.40;;;0.50;99.90;;;;;;7376797;19;20025;-69
2024/01/19 02:01:00;;;;;;;12.60;2.47;;;0.40;99.90;;;;;;7375379;19;20029;-69
2024/01/19 02:03:48;;;;;;;6.57;1.98;;;0.40;99.90;;;;;;7364375;19;20019;-62
2024/01/19 02:06:14;;;;;;;7.47;2.05;;;0.40;99.90;;;;;;7377261;19;20026;-69
2024/01/19 02:08:40;;;;;;;6.38;2.33;;;0.30;99.90;;;;;;7377879;19;20015;-69
2024/01/19 02:11:07;;;;;;;7.22;2.30;;;0.20;99.90;;;;;;7374929;19;20475;-69
2024/01/19 02:13:33;;;;;;;6.43;2.20;;;0.10;99.90;;;;;;7376541;19;20019;-69
2024/01/19 02:16:00;;;;;;;5.78;2.53;;;0.00;99.90;;;;;;7370285;19;20078;-69
2024/01/19 02:18:27;;;;;;;4.00;2.30;;;-0.20;99.90;;;;;;7371892;19;20026;-69
2024/01/19 02:20:54;;;;;;;5.55;2.08;;;-0.30;99.90;;;;;;7375182;19;20014;-70
2024/01/19 02:23:26;;;;;;;11.25;2.70;;;-0.40;99.90;;;;;;7377681;19;20018;-69
2024/01/19 02:25:52;;;;;;;6.22;2.55;;;-0.40;99.90;;;;;;7372901;19;20749;-69
2024/01/19 02:28:18;;;;;;;5.80;3.03;;;-0.50;99.90;;;;;;7371685;19;20028;-70
2024/01/19 02:30:45;;;;;;;6.97;3.45;;;-0.70;99.90;;;;;;7373018;19;20463;-70
2024/01/19 02:33:11;;;;;;;8.88;3.42;;;-0.60;99.90;;;;;;7375241;19;20479;-70
2024/01/19 02:35:37;;;;;;;6.90;3.28;;;-0.70;99.90;;;;;;7372235;19;20399;-70
2024/01/19 02:38:04;;;;;;;12.07;3.53;;;-0.80;99.90;;;;;;7370221;19;20060;-70
2024/01/19 02:40:30;;;;;;;9.65;3.65;;;-0.80;99.90;;;;;;7371518;19;20031;-69
2024/01/19 02:42:56;;;;;;;6.15;3.30;;;-0.80;99.90;;;;;;7374045;19;21309;-62
2024/01/19 02:45:22;;;;;;;7.32;3.75;;;-0.90;99.90;;;;;;7369943;19;20102;-62
2024/01/19 02:47:48;;;;;;;9.35;3.67;;;-0.90;99.90;;;;;;7375281;19;20134;-61
2024/01/19 02:50:14;;;;;;;8.60;3.15;;;-0.80;99.90;;;;;;7375093;19;20015;-62
2024/01/19 02:52:40;;;;;;;8.27;3.10;;;-0.70;99.90;;;;;;7372412;19;20010;-69
2024/01/19 02:55:07;;;;;;;10.00;3.35;;;-0.60;99.90;;;;;;7373825;19;20018;-69
2024/01/19 02:57:54;;;;;;;7.40;3.63;;;-0.50;99.90;;;;;;7367868;19;20018;-69
2024/01/19 03:00:20;;;;;;;4.18;2.30;;;-0.40;99.90;;;;;;7372477;19;20490;-69
2024/01/19 03:02:46;;;;;;;5.88;2.28;;;-0.40;99.90;;;;;;7371150;19;20733;-69
2024/01/19 03:05:13;;;;;;;5.70;1.75;;;-0.30;99.90;;;;;;7371913;19;20628;-69
2024/01/19 03:07:39;;;;;;;6.63;1.75;;;-0.30;99.90;;;;;;7371941;19;20022;-68
2024/01/19 03:10:06;;;;;;;6.57;1.88;;;-0.30;99.90;;;;;;7372159;19;20067;-62
2024/01/19 03:12:32;;;;;;;6.32;1.65;;;-0.30;99.90;;;;;;7372824;19;20674;-61
2024/01/19 03:14:58;;;;;;;7.82;1.42;;;-0.30;99.90;;;;;;7375167;19;20769;-62
2024/01/19 03:17:27;;;;;;;5.70;1.95;;;-0.20;99.90;;;;;;7370927;19;20782;-61
2024/01/19 03:19:53;;;;;;;8.25;1.88;;;-0.10;99.90;;;;;;7370725;19;20507;-62
2024/01/19 03:22:19;;;;;;;8.43;2.15;;;-0.10;99.90;;;;;;7375774;19;20055;-61
2024/01/19 03:24:45;;;;;;;8.25;2.05;;;0.00;99.90;;;;;;7373528;19;20069;-62
2024/01/19 03:27:12;;;;;;;5.53;1.67;;;0.00;99.90;;;;;;7367877;19;20380;-61
2024/01/19 03:29:38;;;;;;;7.55;1.80;;;0.10;99.90;;;;;;7373942;19;20773;-61
2024/01/19 03:32:04;;;;;;;5.13;1.35;;;0.00;99.90;;;;;;7365953;19;21057;-68
2024/01/19 03:34:31;;;;;;;6.63;1.52;;;0.00;99.90;;;;;;7375762;19;20626;-68
2024/01/19 03:37:03;;;;;;;6.00;1.73;;;-0.10;99.90;;;;;;7369967;19;20122;-69
2024/01/19 03:39:31;;;;;;;7.93;1.33;;;-0.10;99.90;;;;;;7369225;19;20124;-68
2024/01/19 03:41:57;;;;;;;6.53;1.80;;;-0.10;99.90;;;;;;7368933;19;20086;-68
2024/01/19 03:44:24;;;;;;;3.90;1.20;;;-0.10;99.90;;;;;;7372907;19;20423;-68
2024/01/19 03:46:53;;;;;;;4.47;1.20;;;0.00;99.90;;;;;;7371705;19;20018;-62
2024/01/19 03:49:22;;;;;;;3.65;1.10;;;0.00;99.90;;;;;;7373183;19;20014;-62
2024/01/19 03:52:02;;;;;;;3.97;1.55;;;0.00;99.90;;;;;;7372619;19;20363;-62
2024/01/19 03:54:29;;;;;;;7.20;1.70;;;0.10;99.90;;;;;;7373214;19;20022;-62
2024/01/19 03:57:00;;;;;;;8.82;1.55;;;0.10;99.90;;;;;;7374319;19;20026;-61
2024/01/19 03:59:27;;;;;;;6.65;1.48;;;0.10;99.90;;;;;;7371615;19;20016;-62
2024/01/19 04:01:54;;;;;;;3.40;1.80;;;0.10;99.90;;;;;;7366201;19;20022;-69
2024/01/19 04:04:21;;;;;;;4.43;1.40;;;0.10;99.90;;;;;;7375350;19;20022;-62
2024/01/19 04:06:48;;;;;;;4.15;1.45;;;0.10;99.90;;;;;;7370748;19;20026;-62
2024/01/19 04:09:17;;;;;;;5.25;1.38;;;0.10;99.90;;;;;;7371623;19;20048;-68
2024/01/19 04:11:46;;;;;;;;;;;0.00;99.90;;;;;;7373355;19;20026;-62
2024/01/19 04:14:12;;;;;;;5.25;1.10;;;0.00;99.90;;;;;;7370151;19;19933;-62
2024/01/19 04:16:39;;;;;;;5.97;1.25;;;-0.20;99.90;;;;;;7369927;19;20022;-61
2024/01/19 04:19:06;;;;;;;4.07;1.10;;;-0.30;99.90;;;;;;7369074;19;20118;-62
2024/01/19 04:21:32;;;;;;;6.25;1.23;;;-0.40;99.90;;;;;;7373819;19;20058;-62
2024/01/19 04:23:59;;;;;;;4.72;1.40;;;-0.60;99.90;;;;;;7366742;19;20018;-62
2024/01/19 04:26:27;;;;;;;6.63;1.90;;;-0.60;99.90;;;;;;7372358;19;20544;-62
2024/01/19 04:28:55;;;;;;;7.80;1.63;;;-0.70;99.90;;;;;;7372179;19;20902;-62
2024/01/19 04:31:24;;;;;;;6.00;1.48;;;-0.70;99.90;;;;;;7372081;19;20022;-62
2024/01/19 04:33:50;;;;;;;6.30;1.40;;;-0.60;99.90;;;;;;7366584;19;20632;-62
2024/01/19 04:36:20;;;;;;;5.80;1.48;;;-0.70;99.90;;;;;;7369651;19;20056;-61
2024/01/19 04:38:49;;;;;;;2.67;1.30;;;-0.70;99.90;;;;;;7369769;19;20029;-61
2024/01/19 04:41:15;;;;;;;5.70;1.42;;;-0.70;99.90;;;;;;7374124;19;20382;-61
2024/01/19 04:43:41;;;;;;;6.38;1.30;;;-0.70;99.90;;;;;;7375796;19;20018;-69
2024/01/19 04:46:07;;;;;;;6.50;1.42;;;-0.60;99.90;;;;;;7374191;19;20410;-68
2024/01/19 04:48:33;;;;;;;5.78;1.38;;;-0.70;99.90;;;;;;7381910;19;20025;-62
2024/01/19 04:51:00;;;;;;;2.67;1.27;;;-0.70;99.90;;;;;;7378117;19;20466;-62
2024/01/19 04:53:26;;;;;;;4.35;1.52;;;-0.70;99.90;;;;;;7377119;19;20026;-62
2024/01/19 04:55:52;;;;;;;5.97;1.67;;;-0.70;99.90;;;;;;7380556;19;20027;-62
2024/01/19 04:58:18;;;;;;;7.45;1.60;;;-0.70;99.90;;;;;;7379658;19;20735;-62
2024/01/19 05:00:46;;;;;;;5.43;1.52;;;-0.70;99.90;;;;;;7374927;19;20149;-62
2024/01/19 05:03:12;;;;;;;4.68;1.30;;;-0.70;99.90;;;;;;7374612;19;20018;-61
2024/01/19 05:05:38;;;;;;;5.97;1.33;;;-0.80;99.90;;;;;;7381350;19;20122;-69
2024/01/19 05:08:04;;;;;;;7.68;1.50;;;-0.80;99.90;;;;;;7377106;19;20019;-62
2024/01/19 05:10:32;;;;;;;4.18;1.10;;;-0.80;99.90;;;;;;7376088;19;20042;-62
2024/01/19 05:12:58;;;;;;;7.65;1.55;;;-0.80;99.90;;;;;;7373085;19;20010;-62
2024/01/19 05:15:24;;;;;;;7.10;1.70;;;-0.80;99.90;;;;;;7377888;19;20300;-61
2024/01/19 05:17:51;;;;;;;9.35;1.48;;;-0.80;99.90;;;;;;7374020;19;20049;-61
2024/01/19 05:20:18;;;;;;;6.70;2.85;;;-0.90;99.90;;;;;;7378777;19;20030;-62
2024/01/19 05:22:44;;;;;;;5.65;1.67;;;-0.90;99.90;;;;;;7375416;19;20636;-61
2024/01/19 05:25:10;;;;;;;5.78;1.67;;;-0.80;99.90;;;;;;7377749;19;20985;-68
2024/01/19 05:27:37;;;;;;;8.45;2.13;;;-1.00;99.90;;;;;;7373289;19;20874;-69
2024/01/19 05:30:04;;;;;;;3.00;1.50;;;-0.90;99.90;;;;;;7379626;19;20031;-70
2024/01/19 05:32:30;;;;;;;9.82;2.15;;;-1.00;99.90;;;;;;7376816;19;20019;-69
2024/01/19 05:34:56;;;;;;;4.80;1.83;;;-1.00;99.90;;;;;;7376589;19;20078;-69
2024/01/19 05:37:23;;;;;;;6.43;1.75;;;-1.00;99.90;;;;;;7379982;19;20018;-70
2024/01/19 05:39:49;;;;;;;5.75;1.58;;;-1.00;99.90;;;;;;7377336;19;20029;-69
2024/01/19 05:42:15;;;;;;;8.48;2.03;;;-1.10;99.90;;;;;;7376591;19;20038;-70
2024/01/19 05:44:42;;;;;;;7.55;2.03;;;-1.10;99.90;;;;;;7379457;19;20014;-70
2024/01/19 05:47:08;;;;;;;5.03;2.35;;;-1.20;99.90;;;;;;7376573;19;20014;-70
2024/01/19 05:49:34;;;;;;;7.88;2.08;;;-1.20;99.90;;;;;;7380949;19;20779;-69
2024/01/19 05:52:00;;;;;;;4.50;2.42;;;-1.20;99.90;;;;;;7371628;19;20138;-63
2024/01/19 05:54:27;;;;;;;6.88;2.60;;;-1.30;99.90;;;;;;7378931;19;20777;-62
2024/01/19 05:56:53;;;;;;;7.93;2.17;;;-1.30;99.90;;;;;;7375110;19;20018;-62
2024/01/19 05:59:21;;;;;;;8.73;2.10;;;-1.20;99.90;;;;;;7376284;19;20775;-61
2024/01/19 06:01:48;;;;;;;10.38;2.25;;;-1.30;99.90;;;;;;7370238;19;20502;-62
2024/01/19 06:04:14;;;;;;;9.32;2.67;;;-1.30;99.90;;;;;;7374945;19;20030;-62
2024/01/19 06:06:41;;;;;;;9.90;2.22;;;-1.30;99.90;;;;;;7377141;19;20058;-61
2024/01/19 06:09:08;;;;;;;6.40;2.50;;;-1.30;99.90;;;;;;7375290;19;20028;-61
2024/01/19 06:11:34;;;;;;;9.63;2.42;;;-1.30;99.90;;;;;;7375464;19;20015;-63
2024/01/19 06:14:00;;;;;;;8.90;2.38;;;-1.30;99.90;;;;;;7372353;19;20053;-69
2024/01/19 06:16:26;;;;;;;11.45;2.53;;;-1.40;99.90;;;;;;7373929;19;20598;-69
2024/01/19 06:18:53;;;;;;;7.82;2.13;;;-1.40;99.90;;;;;;7371816;19;20022;-69
2024/01/19 06:21:19;;;;;;;5.90;2.20;;;-1.40;99.90;;;;;;7373570;19;20055;-70
2024/01/19 06:23:45;;;;;;;6.38;1.58;;;-1.40;99.90;;;;;;7370057;19;20015;-62
2024/01/19 06:26:12;;;;;;;8.65;2.60;;;-1.50;99.90;;;;;;7372256;19;20048;-61
2024/01/19 06:28:39;;;;;;;9.40;2.15;;;-1.50;99.90;;;;;;7373506;19;20022;-61
2024/01/19 06:31:25;;;;;;;9.35;2.55;;;-1.40;99.90;;;;;;7371171;19;20019;-61
2024/01/19 06:33:51;;;;;;;9.82;2.00;;;-1.40;99.90;;;;;;7376991;19;20011;-69
2024/01/19 06:36:17;;;;;;;5.03;2.33;;;-1.30;99.90;;;;;;7375586;19;20031;-69
2024/01/19 06:38:44;;;;;;;7.05;2.22;;;-1.20;99.90;;;;;;7378631;19;20022;-69
2024/01/19 06:41:10;;;;;;;7.75;2.03;;;-1.10;99.90;;;;;;7377184;19;20479;-68
2024/01/19 06:43:36;;;;;;;11.23;2.17;;;-1.00;99.90;;;;;;7374907;19;20018;-69
2024/01/19 06:46:05;;;;;;;9.55;2.17;;;-0.80;99.90;;;;;;7377608;19;20526;-68
2024/01/19 06:48:31;;;;;;;8.98;2.75;;;-0.70;99.90;;;;;;7379322;19;20034;-68
2024/01/19 06:50:58;;;;;;;6.65;1.85;;;-0.50;99.90;;;;;;7376315;19;20022;-61
2024/01/19 06:53:24;;;;;;;6.50;1.92;;;-0.30;99.90;;;;;;7375801;19;20070;-62
2024/01/19 06:55:50;;;;;;;9.60;2.30;;;-0.20;99.90;;;;;;7376851;19;20017;-68
2024/01/19 06:58:16;;;;;;;9.93;2.47;;;-0.10;99.90;;;;;;7380513;19;20018;-67
2024/01/19 07:00:43;;;;;;;11.55;1.88;;;-0.10;99.90;;;;;;7376273;19;20018;-68
2024/01/19 07:03:10;;;;;;;10.93;2.38;;;-0.10;99.90;;;;;;7373103;19;20019;-69
2024/01/19 07:05:37;;;;;;;11.00;2.50;;;-0.10;99.90;;;;;;7375881;19;20052;-68
2024/01/19 07:08:04;;;;;;;7.47;2.30;;;-0.10;99.90;;;;;;7376007;19;20018;-68
2024/01/19 07:10:30;;;;;;;10.55;1.90;;;-0.10;99.90;;;;;;7378765;19;20097;-69
2024/01/19 07:12:56;;;;;;;6.18;1.90;;;-0.20;99.90;;;;;;7375604;19;20029;-68
2024/01/19 07:15:22;;;;;;;14.35;2.03;;;-0.30;99.90;;;;;;7378072;19;20015;-68
2024/01/19 07:17:48;;;;;;;9.10;1.50;;;-0.30;99.90;;;;;;7379826;19;20018;-61
2024/01/19 07:20:14;;;;;;;6.43;1.60;;;-0.40;99.90;;;;;;7376351;19;20085;-65
2024/01/19 07:22:41;;;;;;;9.88;2.00;;;-0.50;99.90;;;;;;7376449;19;20530;-69
2024/01/19 07:25:09;;;;;;;5.70;1.80;;;-0.50;99.90;;;;;;7378009;19;20050;-68
2024/01/19 07:27:36;;;;;;;8.90;1.65;;;-0.60;99.90;;;;;;7374357;19;20018;-61
2024/01/19 07:30:03;;;;;;;7.63;1.63;;;-0.60;99.90;;;;;;7372720;19;20050;-62
2024/01/19 07:32:29;;;;;;;6.40;1.45;;;-0.70;99.90;;;;;;7374070;19;20022;-62
2024/01/19 07:34:55;;;;;;;7.47;1.33;;;-0.70;99.90;;;;;;7374529;19;20018;-62
2024/01/19 07:37:21;;;;;;;4.85;1.42;;;-0.80;99.90;;;;;;7371914;19;20775;-61
2024/01/19 07:39:48;;;;;;;7.82;2.13;;;-0.80;99.90;;;;;;7373238;19;20022;-67
2024/01/19 07:42:14;;;;;;;9.70;1.83;;;-0.70;99.90;;;;;;7379593;19;20498;-67
2024/01/19 07:44:40;;;;;;;6.43;1.52;;;-0.70;99.90;;;;;;7376611;19;20026;-67
2024/01/19 07:47:06;;;;;;;5.72;1.88;;;-0.80;99.90;;;;;;7372467;19;20479;-68
2024/01/19 07:49:33;;;;;;;7.47;1.67;;;-0.60;99.90;;;;;;7377104;19;20018;-67
2024/01/19 07:51:59;;;;;;;6.85;1.65;;;-0.60;99.90;;;;;;7378221;19;20022;-67
2024/01/19 07:54:25;;;;;;;3.88;1.67;;;-0.60;99.90;;;;;;7377904;19;20036;-67
2024/01/19 07:56:51;;;;;;;8.38;1.40;;;-0.50;99.90;;;;;;7378854;19;20015;-67
2024/01/19 07:59:17;;;;;;;5.30;1.70;;;-0.30;99.90;;;;;;7373967;19;20487;-61
2024/01/19 08:01:45;;;;;;;6.22;1.73;;;-0.30;99.90;;;;;;7368678;19;20026;-61
2024/01/19 08:04:12;;;;;;;5.05;1.50;;;-0.20;99.90;;;;;;7368035;19;20014;-61
2024/01/19 08:06:38;;;;;;;10.25;2.00;;;-0.20;99.90;;;;;;7374387;19;20015;-61
2024/01/19 08:09:06;;;;;;;3.92;1.80;;;-0.10;99.90;;;;;;7365136;19;20019;-61
2024/01/19 08:11:32;;;;;;;8.82;2.20;;;0.10;99.90;;;;;;7371640;19;20022;-66
2024/01/19 08:13:58;;;;;;;7.80;2.05;;;0.20;99.90;;;;;;7377810;19;20105;-65
2024/01/19 08:16:25;;;;;;;7.30;2.60;;;0.30;99.90;;;;;;7381937;19;20027;-67
2024/01/19 08:18:51;;;;;;;5.85;2.33;;;0.40;99.90;;;;;;7382013;19;20032;-61
2024/01/19 08:21:21;;;;;;;8.40;2.90;;;0.50;99.90;;;;;;7375925;19;20030;-61
2024/01/19 08:23:47;;;;;;;7.13;2.55;;;0.50;99.90;;;;;;7383651;19;20473;-66
2024/01/19 08:26:14;;;;;;;7.50;2.47;;;0.50;99.90;;;;;;7383077;19;20018;-67
2024/01/19 08:28:40;;;;;;;8.77;2.63;;;0.60;99.90;;;;;;7385143;19;20022;-67
2024/01/19 08:31:13;;;;;;;9.85;2.30;;;0.60;99.90;;;;;;7380928;19;20018;-67
2024/01/19 08:33:40;;;;;;;6.55;2.10;;;0.60;99.90;;;;;;7383185;19;20023;-61
2024/01/19 08:36:06;;;;;;;7.18;2.15;;;0.60;99.90;;;;;;7382308;19;20371;-63
2024/01/19 08:38:33;;;;;;;9.05;2.30;;;0.60;99.90;;;;;;7381831;19;20023;-61
2024/01/19 08:40:59;;;;;;;4.95;2.13;;;0.60;99.90;;;;;;7380009;19;20103;-63
2024/01/19 08:43:25;;;;;;;11.23;2.25;;;0.50;99.90;;;;;;7379909;19;20014;-62
2024/01/19 08:45:52;;;;;;;5.57;1.95;;;0.50;99.90;;;;;;7378010;19;20029;-63
2024/01/19 08:48:18;;;;;;;6.85;2.25;;;0.60;99.90;;;;;;7383800;19;20107;-67
2024/01/19 08:50:45;;;;;;;5.15;2.15;;;0.80;99.90;;;;;;7385386;19;20074;-67
2024/01/19 08:53:12;;;;;;;5.97;2.17;;;1.10;99.90;;;;;;7383635;19;20029;-67
2024/01/19 08:55:39;;;;;;;9.25;2.58;;;1.50;99.90;;;;;;7384771;19;20015;-67
2024/01/19 08:58:06;;;;;;;8.43;2.67;;;1.60;99.90;;;;;;7386790;19;20022;-66
2024/01/19 09:00:32;;;;;;;5.78;2.22;;;2.00;99.90;;;;;;7379370;19;20019;-63
2024/01/19 09:02:58;;;;;;;6.30;2.88;;;2.00;99.90;;;;;;7376159;19;20025;-63
2024/01/19 09:05:26;;;;;;;5.70;2.30;;;2.10;99.90;;;;;;7383572;19;20022;-66
2024/01/19 09:07:52;;;;;;;7.00;2.42;;;2.20;99.90;;;;;;7386864;19;20472;-66
2024/01/19 09:10:21;;;;;;;8.05;2.30;;;2.20;99.90;;;;;;7387585;19;20101;-65
2024/01/19 09:12:48;;;;;;;5.68;2.17;;;2.30;99.90;;;;;;7389333;19;20478;-63
2024/01/19 09:15:16;;;;;;;8.85;1.88;;;2.40;99.90;;;;;;7382292;19;20074;-63
2024/01/19 09:17:42;;;;;;;7.15;2.42;;;2.60;99.90;;;;;;7377300;19;20018;-66
2024/01/19 09:20:10;;;;;;;7.72;2.45;;;2.60;99.90;;;;;;7387288;19;20547;-67
2024/01/19 09:22:36;;;;;;;7.30;2.35;;;2.80;99.90;;;;;;7383134;19;20076;-66
2024/01/19 09:25:02;;;;;;;5.13;1.92;;;2.90;99.90;;;;;;7379229;19;20083;-67
2024/01/19 09:27:29;;;;;;;8.43;2.65;;;2.80;99.90;;;;;;7380635;19;20023;-66
2024/01/19 09:29:55;;;;;;;7.93;2.47;;;2.80;99.90;;;;;;7381265;19;20458;-62
2024/01/19 09:32:21;;;;;;;10.48;2.75;;;2.80;99.90;;;;;;7380524;19;20015;-67
2024/01/19 09:34:48;;;;;;;7.80;2.80;;;2.80;99.90;;;;;;7381935;19;20026;-67
2024/01/19 09:37:17;;;;;;;10.60;2.90;;;2.90;99.90;;;;;;7378354;19;20015;-62
2024/01/19 09:39:44;;;;;;;8.65;3.08;;;3.00;99.90;;;;;;7380192;19;20025;-67
2024/01/19 09:42:26;;;;;;;10.30;3.53;;;3.20;99.90;;;;;;7378939;19;20595;-62
2024/01/19 09:45:07;;;;;;;8.60;2.83;;;3.30;99.90;;;;;;7373290;19;20041;-63
2024/01/19 09:48:04;;;;;;;8.63;3.10;;;3.50;99.90;;;;;;7378245;19;20687;-62
2024/01/19 09:50:36;;;;;;;8.65;2.58;;;3.80;99.90;;;;;;7370378;19;20862;-62
2024/01/19 09:53:25;;;;;;;13.10;3.25;;;3.90;99.90;;;;;;7373832;19;20102;-62
2024/01/19 09:55:52;;;;;;;11.07;3.00;;;4.30;99.90;;;;;;7374997;19;20025;-62
2024/01/19 09:58:22;;;;;;;9.52;2.53;;;4.70;99.90;;;;;;7376111;19;20010;-62
2024/01/19 10:00:50;;;;;;;11.10;3.03;;;5.20;99.90;;;;;;7373593;19;20018;-62
2024/01/19 10:03:17;;;;;;;9.15;2.92;;;5.20;99.90;;;;;;7373995;19;20022;-62
2024/01/19 10:05:45;;;;;;;7.95;2.38;;;5.40;99.90;;;;;;7378825;19;20567;-62
2024/01/19 10:08:14;;;;;;;10.57;2.35;;;5.30;99.90;;;;;;7376118;19;20622;-62
2024/01/19 10:10:42;;;;;;;7.18;1.90;;;5.70;99.90;;;;;;7376612;19;21234;-62
2024/01/19 10:13:09;;;;;;;10.60;3.33;;;5.50;99.90;;;;;;7375246;19;20019;-65
2024/01/19 10:15:36;;;;;;;8.13;3.25;;;5.60;99.90;;;;;;7378057;19;20091;-62
2024/01/19 10:18:05;;;;;;;8.82;2.60;;;5.40;99.90;;;;;;7373194;19;20386;-62
2024/01/19 10:20:32;;;;;;;8.20;2.60;;;5.20;99.90;;;;;;7374823;19;20018;-62
2024/01/19 10:23:21;;;;;;;7.32;2.95;;;5.00;99.90;;;;;;7378572;19;20710;-66
2024/01/19 10:25:49;;;;;;;6.32;2.50;;;5.10;99.90;;;;;;7373968;19;20010;-62
2024/01/19 10:28:34;;;;;;;10.45;3.22;;;5.00;99.90;;;;;;7375658;19;20014;-62
2024/01/19 10:31:14;;;;;;;8.82;3.05;;;5.00;99.90;;;;;;7374750;19;20030;-62
2024/01/19 10:33:51;;;;;;;9.43;2.95;;;5.10;99.90;;;;;;7371623;19;20066;-62
2024/01/19 10:36:39;;;;;;;8.57;3.75;;;5.10;99.90;;;;;;7373499;19;20422;-62
2024/01/19 10:39:31;;;;;;;7.40;2.80;;;5.20;99.90;;;;;;7374156;19;20061;-62
2024/01/19 10:42:08;;;;;;;8.73;3.30;;;5.80;99.90;;;;;;7376864;19;20030;-66
2024/01/19 10:44:37;;;;;;;9.02;3.30;;;6.30;99.90;;;;;;7376853;19;20162;-66
2024/01/19 10:47:04;;;;;;;5.78;2.40;;;5.60;99.90;;;;;;7374932;19;20082;-66
2024/01/19 10:49:30;;;;;;;7.75;2.90;;;5.70;99.90;;;;;;7378835;19;20119;-63
2024/01/19 10:51:56;;;;;;;7.75;3.25;;;5.40;99.90;;;;;;7377089;19;20526;-66
2024/01/19 10:54:27;;;;;;;8.63;3.13;;;5.20;99.90;;;;;;7376484;19;20026;-63
2024/01/19 10:57:08;;;;;;;10.35;2.72;;;5.30;99.90;;;;;;7370539;19;20042;-62
2024/01/19 10:59:35;;;;;;;10.38;2.67;;;5.20;99.90;;;;;;7378062;19;20024;-66
2024/01/19 11:02:04;;;;;;;7.97;3.03;;;5.20;99.90;;;;;;7376596;19;20094;-66
2024/01/19 11:04:32;;;;;;;9.45;2.65;;;4.70;99.90;;;;;;7381816;19;20060;-66
2024/01/19 11:06:59;;;;;;;8.60;2.88;;;5.30;99.90;;;;;;7381738;19;20028;-67
2024/01/19 11:09:25;;;;;;;6.32;2.55;;;5.70;99.90;;;;;;7377180;19;20030;-62
2024/01/19 11:12:18;;;;;;;7.60;2.85;;;6.60;99.90;;;;;;7373411;19;20014;-62
2024/01/19 11:14:46;;;;;;;5.78;2.33;;;7.30;99.90;;;;;;7374236;19;20022;-62
2024/01/19 11:17:16;;;;;;;8.77;2.78;;;7.50;99.90;;;;;;7381243;19;20363;-66
2024/01/19 11:19:43;;;;;;;4.40;2.17;;;7.90;99.90;;;;;;7385495;19;20094;-66
2024/01/19 11:22:09;;;;;;;7.60;2.30;;;7.80;99.90;;;;;;7382479;19;20023;-67
2024/01/19 11:24:37;;;;;;;5.90;2.47;;;8.00;99.90;;;;;;7379512;19;20094;-67
2024/01/19 11:27:21;;;;;;;9.35;3.13;;;7.70;99.90;;;;;;7384301;19;20029;-67
2024/01/19 11:29:51;;;;;;;13.63;4.20;;;7.50;99.90;;;;;;7384445;19;20017;-63
2024/01/19 11:32:18;;;;;;;6.55;2.45;;;7.20;99.90;;;;;;7375083;19;20029;-62
2024/01/19 11:34:47;;;;;;;7.65;2.63;;;7.20;99.90;;;;;;7372065;19;20029;-62
2024/01/19 11:37:44;;;;;;;7.63;2.95;;;6.90;99.90;;;;;;7372438;19;20442;-62
2024/01/19 11:40:29;;;;;;;8.30;3.13;;;6.90;99.90;;;;;;7363473;19;20035;-62
2024/01/19 11:42:58;;;;;;;6.60;2.20;;;7.10;99.90;;;;;;7361815;19;20029;-62
2024/01/19 11:45:40;;;;;;;10.23;2.28;;;7.10;99.90;;;;;;7362309;19;20014;-61
2024/01/19 11:48:07;;;;;;;9.05;3.17;;;6.80;99.90;;;;;;7364128;19;20085;-62
2024/01/19 11:50:44;;;;;;;6.65;3.30;;;7.30;99.90;;;;;;7369245;19;20086;-67
2024/01/19 11:53:11;;;;;;;8.50;2.70;;;7.40;99.90;;;;;;7361865;19;20014;-62
2024/01/19 11:55:48;;;;;;;6.25;2.08;;;8.10;99.90;;;;;;7369187;19;20018;-62
2024/01/19 11:58:39;;;;;;;6.53;2.50;;;8.40;99.90;;;;;;7367605;19;20046;-62
2024/01/19 12:01:07;;;;;;;10.18;2.78;;;8.60;99.90;;;;;;7362918;19;20019;-63
2024/01/19 12:03:35;;;;;;;6.97;2.50;;;8.70;99.90;;;;;;7364027;19;21473;-63
2024/01/19 12:06:02;;;;;;;7.43;2.72;;;8.80;99.90;;;;;;7374755;19;20021;-67
2024/01/19 12:08:29;;;;;;;8.68;2.55;;;9.40;99.90;;;;;;7374311;19;20071;-62
2024/01/19 12:11:02;;;;;;;7.57;2.63;;;9.80;99.90;;;;;;7366780;19;20022;-61
2024/01/19 12:13:30;;;;;;;10.13;2.72;;;9.10;99.90;;;;;;7359709;19;20019;-63
2024/01/19 12:15:58;;;;;;;8.60;2.97;;;9.20;99.90;;;;;;7360116;19;20018;-61
2024/01/19 12:18:25;;;;;;;8.73;2.80;;;9.20;99.90;;;;;;7364623;19;20055;-61
2024/01/19 12:20:57;;;;;;;7.35;2.97;;;9.50;99.90;;;;;;7363348;19;20099;-61
2024/01/19 12:23:24;;;;;;;11.93;5.03;;;9.60;99.90;;;;;;7363265;19;20018;-61
2024/01/19 12:25:56;;;;;;;10.52;3.03;;;9.20;99.50;;;;;;7359974;19;20050;-61
2024/01/19 12:28:22;;;;;;;;;;;9.30;99.60;;;;;;7365195;19;20019;-61
2024/01/19 12:30:51;;;;;;;9.43;2.67;;;9.60;99.90;;;;;;7363623;19;20276;-61
2024/01/19 12:33:25;;;;;;;7.00;2.22;;;9.80;99.90;;;;;;7362201;19;20021;-61
2024/01/19 12:36:06;;;;;;;9.85;2.75;;;10.10;99.90;;;;;;7362415;19;20019;-61
2024/01/19 12:38:34;;;;;;;7.60;2.42;;;10.00;98.30;;;;;;7360113;19;20020;-61
2024/01/19 12:41:03;;;;;;;8.68;2.97;;;10.50;99.90;;;;;;7361603;19;20021;-61
2024/01/19 12:43:31;;;;;;;10.43;2.42;;;10.40;99.90;;;;;;7360104;19;20715;-61
2024/01/19 12:46:08;;;;;;;8.80;2.70;;;10.30;97.90;;;;;;7358797;19;20052;-61
2024/01/19 12:48:35;;;;;;;9.32;2.42;;;10.00;97.00;;;;;;7361355;19;20045;-61
2024/01/19 12:51:22;;;;;;;7.07;2.22;;;10.30;99.40;;;;;;7362187;19;21574;-61
2024/01/19 12:53:53;;;;;;;7.20;2.85;;;9.80;96.60;;;;;;7369982;19;20023;-61
2024/01/19 12:56:26;;;;;;;7.60;2.33;;;9.50;98.10;;;;;;7371070;19;20023;-61